createdAt,value
2022-07-25T19:41:23.632Z,100373.16
2022-07-25T19:43:53.526Z,100412.41
2022-07-25T19:46:21.871Z,100440.06
2022-07-25T19:48:52.820Z,100453.09
2022-07-25T19:51:21.793Z,100455.50
2022-07-25T19:53:54.473Z,100489.25
2022-07-25T19:56:22.660Z,100516.88
2022-07-25T19:58:51.786Z,100557.13
2022-07-25T20:01:20.233Z,100592.13
2022-07-25T20:03:50.033Z,100594.81
2022-07-25T20:06:21.221Z,100597.50
2022-07-25T20:08:49.984Z,100611.72
2022-07-25T20:11:18.621Z,100638.72
2022-07-25T20:13:46.820Z,100659.78
2022-07-25T20:31:53.127Z,100637.19
2022-07-25T20:34:22.151Z,100645.75
2022-07-25T20:36:50.580Z,100633.13
2022-07-25T20:39:18.882Z,100634.56
2022-07-25T20:41:47.301Z,100646.03
2022-07-25T20:44:15.706Z,100627.50
2022-07-25T20:46:53.866Z,100630.59
2022-07-25T20:49:22.943Z,100630.38
2022-07-25T20:59:25.503Z,100613.63
2022-07-25T21:01:53.816Z,100612.69
2022-07-25T21:04:22.066Z,100601.72
2022-07-25T21:06:50.631Z,100582.81
2022-07-25T21:09:20.962Z,100563.09
2022-07-25T21:11:49.341Z,100542.66
2022-07-25T21:14:17.771Z,100520.47
2022-07-25T21:16:46.159Z,100513.28
2022-07-25T21:19:14.612Z,100494.19
2022-07-25T21:21:42.777Z,100474.72
2022-07-25T21:24:17.825Z,100446.41
2022-07-25T21:26:46.390Z,100443.19
2022-07-25T21:29:15.179Z,100436.13
2022-07-25T21:31:49.459Z,100441.34
2022-07-25T21:34:28.437Z,100438.03
2022-07-25T21:37:08.653Z,100430.72
2022-07-25T21:39:40.465Z,100421.03
2022-07-25T21:42:10.382Z,100402.44
2022-07-25T21:44:46.852Z,100384.59
2022-07-25T21:47:19.223Z,100384.53
2022-07-25T21:50:19.201Z,100390.38
2022-07-25T21:55:54.478Z,100373.84
2022-07-25T21:58:35.017Z,100378.16
2022-07-25T22:01:03.763Z,100385.81
2022-07-25T22:03:32.784Z,100349.88
2022-07-25T22:06:13.605Z,100304.09
2022-07-25T22:09:02.141Z,100297.06
2022-07-25T22:11:42.318Z,100303.75
2022-07-25T22:14:26.917Z,100290.97
2022-07-25T22:16:59.172Z,100302.38
2022-07-25T22:19:36.922Z,100308.03
2022-07-25T22:22:15.517Z,100334.28
2022-07-25T22:25:01.719Z,100338.66
2022-07-25T22:41:52.625Z,100429.00
2022-07-25T22:44:21.185Z,100420.78
2022-07-25T22:46:49.694Z,100408.97
2022-07-25T22:49:18.539Z,100423.03
2022-07-25T22:51:47.413Z,100396.09
2022-07-25T22:54:20.413Z,100421.28
2022-07-25T22:56:49.904Z,100423.28
2022-07-25T22:59:18.520Z,100439.00
2022-07-25T23:01:47.365Z,100428.44
2022-07-25T23:04:16.356Z,100431.50
2022-07-25T23:06:45.038Z,100444.56
2022-07-25T23:09:16.954Z,100440.84
2022-07-25T23:11:49.050Z,100441.75
2022-07-25T23:14:18.333Z,100437.28
2022-07-25T23:17:06.644Z,100439.06
2022-07-25T23:19:35.336Z,100441.16
2022-07-25T23:22:03.849Z,100434.78
2022-07-25T23:24:37.357Z,100437.31
2022-07-25T23:27:07.603Z,100424.25
2022-07-25T23:29:36.205Z,100415.78
2022-07-25T23:32:05.735Z,100422.44
2022-07-25T23:34:35.689Z,100426.84
2022-07-25T23:37:05.418Z,100407.97
2022-07-25T23:39:34.202Z,100400.53
2022-07-25T23:42:04.203Z,100400.34
2022-07-25T23:44:32.999Z,100401.22
2022-07-25T23:47:05.242Z,100404.72
2022-07-25T23:49:38.925Z,100405.19
2022-07-25T23:52:07.563Z,100401.16
2022-07-25T23:54:36.283Z,100404.03
2022-07-25T23:57:05.562Z,100398.31
2022-07-25T23:59:34.837Z,100402.56
